Flight Briefing for CPX261

Departure Arrival
Kansas City International Airport (KMCI)
Click to view FAA NOTAMS
General Edward Lawrence Logan International Airport (KBOS)
Click to view FAA NOTAMS
Departure Time Arrival Time
N/A N/A
Aircraft Distance
B767-300BDSF 1090nm
Departure METAR Arrival METAR
KMCI 192253Z 08010KT 10SM OVC110 M02/M07 A3017 RMK AO2 SLP229 T10171072 KBOS 192254Z 32009KT 10SM SCT200 M02/M18 A3048 RMK AO2 SLP320 T10171178
Suggested Route
LAKES2 SPI ROD KLYNE Q29 JHW Q82 PONCT JFUND2


View recent IFR Routes data
Notes
METROAIR CARGO SUPPORT

Charts and Procedures

Charts for KMCI
No chart available
Charts for KBOS
No chart available

Ventusky Weather




{"cat":null,"equip":null,"transponder":null,"pbn":"PBN\/","maxpax":null,"oew":"0.0","mzfw":"0.0","mtow":"0.0","mlw":"0.0","maxfuel":"0.0"} DEVELOPMENTAL TEST USE ONLY